sensor_id;sensor_type;location;lat;lon;timestamp;P1;durP1;ratioP1;P2;durP2;ratioP2
45114;SDS011;30877;43.706;10.780;2023-12-28T00:01:05;15.07;;;11.35;;
45114;SDS011;30877;43.706;10.780;2023-12-28T00:03:37;15.23;;;11.75;;
45114;SDS011;30877;43.706;10.780;2023-12-28T00:06:08;17.90;;;12.20;;
45114;SDS011;30877;43.706;10.780;2023-12-28T00:08:38;18.33;;;13.18;;
45114;SDS011;30877;43.706;10.780;2023-12-28T00:11:09;17.83;;;11.52;;
45114;SDS011;30877;43.706;10.780;2023-12-28T00:13:42;15.73;;;11.48;;
45114;SDS011;30877;43.706;10.780;2023-12-28T00:16:20;16.73;;;11.25;;
45114;SDS011;30877;43.706;10.780;2023-12-28T00:18:55;13.80;;;10.73;;
45114;SDS011;30877;43.706;10.780;2023-12-28T00:22:02;14.95;;;11.18;;
45114;SDS011;30877;43.706;10.780;2023-12-28T00:28:23;16.45;;;10.32;;
45114;SDS011;30877;43.706;10.780;2023-12-28T00:30:52;14.82;;;11.15;;
45114;SDS011;30877;43.706;10.780;2023-12-28T00:33:21;14.18;;;11.88;;
45114;SDS011;30877;43.706;10.780;2023-12-28T00:35:54;16.65;;;12.75;;
45114;SDS011;30877;43.706;10.780;2023-12-28T00:38:25;19.60;;;12.38;;
45114;SDS011;30877;43.706;10.780;2023-12-28T00:41:21;13.70;;;11.63;;
45114;SDS011;30877;43.706;10.780;2023-12-28T00:43:52;18.77;;;12.60;;
45114;SDS011;30877;43.706;10.780;2023-12-28T00:46:21;18.85;;;13.98;;
45114;SDS011;30877;43.706;10.780;2023-12-28T00:48:50;18.98;;;15.98;;
45114;SDS011;30877;43.706;10.780;2023-12-28T00:51:21;19.17;;;13.98;;
45114;SDS011;30877;43.706;10.780;2023-12-28T00:53:50;17.50;;;12.70;;
45114;SDS011;30877;43.706;10.780;2023-12-28T00:56:40;17.33;;;13.73;;
45114;SDS011;30877;43.706;10.780;2023-12-28T00:59:09;14.68;;;12.13;;
45114;SDS011;30877;43.706;10.780;2023-12-28T01:01:38;15.07;;;12.27;;
45114;SDS011;30877;43.706;10.780;2023-12-28T01:04:54;17.45;;;13.40;;
45114;SDS011;30877;43.706;10.780;2023-12-28T01:07:26;20.10;;;14.18;;
45114;SDS011;30877;43.706;10.780;2023-12-28T01:10:01;17.65;;;13.85;;
45114;SDS011;30877;43.706;10.780;2023-12-28T01:12:30;18.23;;;13.32;;
45114;SDS011;30877;43.706;10.780;2023-12-28T01:14:59;17.15;;;14.13;;
45114;SDS011;30877;43.706;10.780;2023-12-28T01:17:32;16.67;;;13.23;;
45114;SDS011;30877;43.706;10.780;2023-12-28T01:20:01;19.00;;;14.57;;
45114;SDS011;30877;43.706;10.780;2023-12-28T01:26:13;18.80;;;13.80;;
45114;SDS011;30877;43.706;10.780;2023-12-28T01:28:52;18.27;;;15.15;;
45114;SDS011;30877;43.706;10.780;2023-12-28T01:31:22;16.65;;;14.00;;
45114;SDS011;30877;43.706;10.780;2023-12-28T01:34:36;20.75;;;15.32;;
45114;SDS011;30877;43.706;10.780;2023-12-28T01:37:34;20.67;;;15.50;;
45114;SDS011;30877;43.706;10.780;2023-12-28T01:40:06;21.35;;;14.48;;
45114;SDS011;30877;43.706;10.780;2023-12-28T01:43:39;18.05;;;13.82;;
45114;SDS011;30877;43.706;10.780;2023-12-28T01:46:16;20.35;;;15.18;;
45114;SDS011;30877;43.706;10.780;2023-12-28T01:48:58;19.27;;;14.13;;
45114;SDS011;30877;43.706;10.780;2023-12-28T01:51:30;21.48;;;16.63;;
45114;SDS011;30877;43.706;10.780;2023-12-28T01:54:13;22.35;;;17.38;;
45114;SDS011;30877;43.706;10.780;2023-12-28T01:57:26;20.80;;;15.55;;
45114;SDS011;30877;43.706;10.780;2023-12-28T02:00:09;21.45;;;16.58;;
45114;SDS011;30877;43.706;10.780;2023-12-28T02:02:41;19.15;;;15.95;;
45114;SDS011;30877;43.706;10.780;2023-12-28T02:05:09;19.65;;;15.85;;
45114;SDS011;30877;43.706;10.780;2023-12-28T02:07:42;19.30;;;15.93;;
45114;SDS011;30877;43.706;10.780;2023-12-28T02:10:11;23.38;;;17.10;;
45114;SDS011;30877;43.706;10.780;2023-12-28T02:12:46;24.85;;;16.13;;
45114;SDS011;30877;43.706;10.780;2023-12-28T02:15:19;22.35;;;17.15;;
45114;SDS011;30877;43.706;10.780;2023-12-28T02:21:15;20.17;;;16.30;;
45114;SDS011;30877;43.706;10.780;2023-12-28T02:23:47;19.50;;;16.58;;
45114;SDS011;30877;43.706;10.780;2023-12-28T02:33:38;24.77;;;17.40;;
45114;SDS011;30877;43.706;10.780;2023-12-28T02:36:18;22.55;;;17.55;;
45114;SDS011;30877;43.706;10.780;2023-12-28T02:38:50;22.15;;;17.67;;
45114;SDS011;30877;43.706;10.780;2023-12-28T02:41:27;22.75;;;17.15;;
45114;SDS011;30877;43.706;10.780;2023-12-28T02:44:01;22.30;;;16.92;;
45114;SDS011;30877;43.706;10.780;2023-12-28T02:46:39;22.48;;;17.75;;
45114;SDS011;30877;43.706;10.780;2023-12-28T02:49:11;21.08;;;17.05;;
45114;SDS011;30877;43.706;10.780;2023-12-28T02:52:53;21.92;;;16.85;;
45114;SDS011;30877;43.706;10.780;2023-12-28T02:55:29;20.75;;;15.65;;
45114;SDS011;30877;43.706;10.780;2023-12-28T02:57:59;21.73;;;17.45;;
45114;SDS011;30877;43.706;10.780;2023-12-28T03:00:42;19.92;;;15.57;;
45114;SDS011;30877;43.706;10.780;2023-12-28T03:03:11;22.30;;;17.33;;
45114;SDS011;30877;43.706;10.780;2023-12-28T03:05:42;24.08;;;16.92;;
45114;SDS011;30877;43.706;10.780;2023-12-28T03:08:11;21.67;;;17.00;;
45114;SDS011;30877;43.706;10.780;2023-12-28T03:10:47;23.33;;;16.27;;
45114;SDS011;30877;43.706;10.780;2023-12-28T03:17:29;20.92;;;16.80;;
45114;SDS011;30877;43.706;10.780;2023-12-28T03:20:02;18.48;;;15.88;;
45114;SDS011;30877;43.706;10.780;2023-12-28T03:22:33;20.38;;;17.02;;
45114;SDS011;30877;43.706;10.780;2023-12-28T03:25:03;20.70;;;16.40;;
45114;SDS011;30877;43.706;10.780;2023-12-28T03:27:53;20.70;;;15.90;;
45114;SDS011;30877;43.706;10.780;2023-12-28T03:30:44;20.02;;;16.13;;
45114;SDS011;30877;43.706;10.780;2023-12-28T03:33:17;20.38;;;16.05;;
45114;SDS011;30877;43.706;10.780;2023-12-28T03:35:46;20.17;;;15.48;;
45114;SDS011;30877;43.706;10.780;2023-12-28T03:38:19;20.55;;;15.73;;
45114;SDS011;30877;43.706;10.780;2023-12-28T03:40:48;19.65;;;15.32;;
45114;SDS011;30877;43.706;10.780;2023-12-28T03:43:17;18.00;;;15.68;;
45114;SDS011;30877;43.706;10.780;2023-12-28T03:45:46;19.88;;;15.48;;
45114;SDS011;30877;43.706;10.780;2023-12-28T03:48:47;21.27;;;16.25;;
45114;SDS011;30877;43.706;10.780;2023-12-28T03:51:17;20.35;;;15.55;;
45114;SDS011;30877;43.706;10.780;2023-12-28T03:53:48;21.88;;;16.30;;
45114;SDS011;30877;43.706;10.780;2023-12-28T03:59:22;19.80;;;15.93;;
45114;SDS011;30877;43.706;10.780;2023-12-28T04:01:56;18.42;;;15.30;;
45114;SDS011;30877;43.706;10.780;2023-12-28T04:04:25;18.38;;;15.18;;
45114;SDS011;30877;43.706;10.780;2023-12-28T04:06:54;19.02;;;14.43;;
45114;SDS011;30877;43.706;10.780;2023-12-28T04:09:50;20.25;;;13.98;;
45114;SDS011;30877;43.706;10.780;2023-12-28T04:12:19;17.42;;;12.15;;
45114;SDS011;30877;43.706;10.780;2023-12-28T04:14:49;16.65;;;11.73;;
45114;SDS011;30877;43.706;10.780;2023-12-28T04:17:18;17.77;;;11.65;;
45114;SDS011;30877;43.706;10.780;2023-12-28T04:19:47;14.20;;;11.52;;
45114;SDS011;30877;43.706;10.780;2023-12-28T04:22:23;14.25;;;11.43;;
45114;SDS011;30877;43.706;10.780;2023-12-28T04:24:56;15.93;;;11.98;;
45114;SDS011;30877;43.706;10.780;2023-12-28T04:27:25;14.77;;;12.25;;
45114;SDS011;30877;43.706;10.780;2023-12-28T04:29:53;14.65;;;12.15;;
45114;SDS011;30877;43.706;10.780;2023-12-28T04:32:22;15.15;;;12.38;;
45114;SDS011;30877;43.706;10.780;2023-12-28T04:34:54;15.43;;;12.88;;
45114;SDS011;30877;43.706;10.780;2023-12-28T04:44:27;18.80;;;14.90;;
45114;SDS011;30877;43.706;10.780;2023-12-28T04:46:56;17.67;;;14.43;;
45114;SDS011;30877;43.706;10.780;2023-12-28T04:58:50;19.60;;;15.65;;
45114;SDS011;30877;43.706;10.780;2023-12-28T05:01:27;16.75;;;14.10;;
45114;SDS011;30877;43.706;10.780;2023-12-28T05:03:59;15.90;;;13.90;;
45114;SDS011;30877;43.706;10.780;2023-12-28T05:06:28;17.05;;;13.32;;
45114;SDS011;30877;43.706;10.780;2023-12-28T05:09:00;16.95;;;13.07;;
45114;SDS011;30877;43.706;10.780;2023-12-28T05:12:32;16.83;;;12.32;;
45114;SDS011;30877;43.706;10.780;2023-12-28T05:15:11;14.82;;;12.15;;
45114;SDS011;30877;43.706;10.780;2023-12-28T05:17:42;17.25;;;11.57;;
45114;SDS011;30877;43.706;10.780;2023-12-28T05:22:46;11.32;;;7.95;;
45114;SDS011;30877;43.706;10.780;2023-12-28T05:25:17;12.68;;;10.20;;
45114;SDS011;30877;43.706;10.780;2023-12-28T05:27:49;13.82;;;8.98;;
45114;SDS011;30877;43.706;10.780;2023-12-28T05:30:18;14.90;;;10.65;;
45114;SDS011;30877;43.706;10.780;2023-12-28T05:40:02;13.80;;;11.15;;
45114;SDS011;30877;43.706;10.780;2023-12-28T05:42:31;14.73;;;11.95;;
45114;SDS011;30877;43.706;10.780;2023-12-28T05:48:41;14.77;;;12.30;;
45114;SDS011;30877;43.706;10.780;2023-12-28T05:51:28;13.52;;;10.68;;
45114;SDS011;30877;43.706;10.780;2023-12-28T05:54:11;14.90;;;10.38;;
45114;SDS011;30877;43.706;10.780;2023-12-28T05:56:45;14.43;;;11.35;;
45114;SDS011;30877;43.706;10.780;2023-12-28T05:59:17;14.88;;;10.80;;
45114;SDS011;30877;43.706;10.780;2023-12-28T06:01:46;14.52;;;10.68;;
45114;SDS011;30877;43.706;10.780;2023-12-28T06:04:15;18.65;;;13.13;;
45114;SDS011;30877;43.706;10.780;2023-12-28T06:11:19;12.57;;;9.30;;
45114;SDS011;30877;43.706;10.780;2023-12-28T06:13:53;13.32;;;10.23;;
45114;SDS011;30877;43.706;10.780;2023-12-28T06:16:40;12.77;;;8.88;;
45114;SDS011;30877;43.706;10.780;2023-12-28T06:31:52;11.93;;;9.73;;
45114;SDS011;30877;43.706;10.780;2023-12-28T06:34:41;14.63;;;10.65;;
45114;SDS011;30877;43.706;10.780;2023-12-28T06:37:09;12.13;;;9.50;;
45114;SDS011;30877;43.706;10.780;2023-12-28T06:39:58;11.68;;;9.52;;
45114;SDS011;30877;43.706;10.780;2023-12-28T06:42:48;12.60;;;9.18;;
45114;SDS011;30877;43.706;10.780;2023-12-28T06:45:17;14.43;;;10.85;;
45114;SDS011;30877;43.706;10.780;2023-12-28T06:47:57;20.52;;;15.93;;
45114;SDS011;30877;43.706;10.780;2023-12-28T06:50:27;20.83;;;14.30;;
45114;SDS011;30877;43.706;10.780;2023-12-28T06:52:59;19.48;;;15.80;;
45114;SDS011;30877;43.706;10.780;2023-12-28T06:55:31;16.75;;;14.00;;
45114;SDS011;30877;43.706;10.780;2023-12-28T07:01:23;18.80;;;14.13;;
45114;SDS011;30877;43.706;10.780;2023-12-28T07:03:54;15.55;;;12.20;;
45114;SDS011;30877;43.706;10.780;2023-12-28T07:10:12;13.13;;;11.40;;
45114;SDS011;30877;43.706;10.780;2023-12-28T07:13:02;13.68;;;10.80;;
45114;SDS011;30877;43.706;10.780;2023-12-28T07:15:36;14.30;;;10.68;;
45114;SDS011;30877;43.706;10.780;2023-12-28T07:18:05;11.85;;;10.00;;
45114;SDS011;30877;43.706;10.780;2023-12-28T07:20:41;14.35;;;9.35;;
45114;SDS011;30877;43.706;10.780;2023-12-28T07:23:09;12.30;;;9.02;;
45114;SDS011;30877;43.706;10.780;2023-12-28T07:25:53;10.95;;;8.80;;
45114;SDS011;30877;43.706;10.780;2023-12-28T07:28:22;14.07;;;9.70;;
45114;SDS011;30877;43.706;10.780;2023-12-28T07:31:28;13.07;;;9.88;;
45114;SDS011;30877;43.706;10.780;2023-12-28T07:36:57;13.82;;;10.35;;
45114;SDS011;30877;43.706;10.780;2023-12-28T07:44:32;16.77;;;11.80;;
45114;SDS011;30877;43.706;10.780;2023-12-28T07:47:01;16.58;;;11.55;;
45114;SDS011;30877;43.706;10.780;2023-12-28T07:49:56;14.63;;;11.00;;
45114;SDS011;30877;43.706;10.780;2023-12-28T07:52:28;14.07;;;12.38;;
45114;SDS011;30877;43.706;10.780;2023-12-28T07:55:03;13.88;;;10.95;;
45114;SDS011;30877;43.706;10.780;2023-12-28T07:57:32;15.32;;;12.15;;
45114;SDS011;30877;43.706;10.780;2023-12-28T08:00:02;14.90;;;10.65;;
45114;SDS011;30877;43.706;10.780;2023-12-28T08:02:32;17.42;;;11.85;;
45114;SDS011;30877;43.706;10.780;2023-12-28T08:05:01;16.00;;;11.32;;
45114;SDS011;30877;43.706;10.780;2023-12-28T08:07:32;20.05;;;11.75;;
45114;SDS011;30877;43.706;10.780;2023-12-28T08:10:02;14.23;;;11.18;;
45114;SDS011;30877;43.706;10.780;2023-12-28T08:12:33;19.30;;;12.40;;
45114;SDS011;30877;43.706;10.780;2023-12-28T08:15:01;22.38;;;13.13;;
45114;SDS011;30877;43.706;10.780;2023-12-28T08:17:30;18.05;;;13.00;;
45114;SDS011;30877;43.706;10.780;2023-12-28T08:19:58;21.88;;;13.20;;
45114;SDS011;30877;43.706;10.780;2023-12-28T08:22:27;16.45;;;12.70;;
45114;SDS011;30877;43.706;10.780;2023-12-28T08:24:58;15.23;;;11.48;;
45114;SDS011;30877;43.706;10.780;2023-12-28T08:27:40;19.98;;;13.93;;
45114;SDS011;30877;43.706;10.780;2023-12-28T08:30:09;20.83;;;13.38;;
45114;SDS011;30877;43.706;10.780;2023-12-28T08:32:38;17.05;;;13.30;;
45114;SDS011;30877;43.706;10.780;2023-12-28T08:35:07;19.77;;;12.05;;
45114;SDS011;30877;43.706;10.780;2023-12-28T08:37:38;14.35;;;11.32;;
45114;SDS011;30877;43.706;10.780;2023-12-28T08:40:09;13.63;;;11.30;;
45114;SDS011;30877;43.706;10.780;2023-12-28T08:42:38;14.68;;;12.45;;
45114;SDS011;30877;43.706;10.780;2023-12-28T08:45:07;14.13;;;11.52;;
45114;SDS011;30877;43.706;10.780;2023-12-28T08:47:36;15.70;;;11.00;;
45114;SDS011;30877;43.706;10.780;2023-12-28T08:50:07;19.27;;;12.50;;
45114;SDS011;30877;43.706;10.780;2023-12-28T08:52:36;14.80;;;12.07;;
45114;SDS011;30877;43.706;10.780;2023-12-28T08:55:05;17.67;;;12.45;;
45114;SDS011;30877;43.706;10.780;2023-12-28T09:00:32;15.18;;;11.52;;
45114;SDS011;30877;43.706;10.780;2023-12-28T09:03:01;14.77;;;11.27;;
45114;SDS011;30877;43.706;10.780;2023-12-28T09:05:30;14.75;;;11.73;;
45114;SDS011;30877;43.706;10.780;2023-12-28T09:07:58;33.47;;;24.58;;
45114;SDS011;30877;43.706;10.780;2023-12-28T09:10:29;21.00;;;15.73;;
45114;SDS011;30877;43.706;10.780;2023-12-28T09:12:58;26.50;;;16.55;;
45114;SDS011;30877;43.706;10.780;2023-12-28T09:15:27;17.48;;;14.18;;
45114;SDS011;30877;43.706;10.780;2023-12-28T09:17:56;18.75;;;13.57;;
45114;SDS011;30877;43.706;10.780;2023-12-28T09:20:25;17.38;;;12.82;;
45114;SDS011;30877;43.706;10.780;2023-12-28T09:22:53;16.17;;;11.95;;
45114;SDS011;30877;43.706;10.780;2023-12-28T09:25:23;16.27;;;11.77;;
45114;SDS011;30877;43.706;10.780;2023-12-28T09:27:53;15.82;;;12.35;;
45114;SDS011;30877;43.706;10.780;2023-12-28T09:30:23;14.10;;;11.20;;
45114;SDS011;30877;43.706;10.780;2023-12-28T09:32:52;15.13;;;11.85;;
45114;SDS011;30877;43.706;10.780;2023-12-28T09:35:20;14.13;;;11.30;;
45114;SDS011;30877;43.706;10.780;2023-12-28T09:37:50;15.70;;;10.80;;
45114;SDS011;30877;43.706;10.780;2023-12-28T09:40:18;16.33;;;11.27;;
45114;SDS011;30877;43.706;10.780;2023-12-28T09:42:48;17.02;;;11.35;;
45114;SDS011;30877;43.706;10.780;2023-12-28T09:45:22;12.90;;;11.10;;
45114;SDS011;30877;43.706;10.780;2023-12-28T09:47:50;14.88;;;11.10;;
45114;SDS011;30877;43.706;10.780;2023-12-28T09:50:20;16.08;;;12.35;;
45114;SDS011;30877;43.706;10.780;2023-12-28T09:52:51;17.48;;;12.35;;
45114;SDS011;30877;43.706;10.780;2023-12-28T09:55:19;16.50;;;11.98;;
45114;SDS011;30877;43.706;10.780;2023-12-28T09:57:47;17.58;;;13.00;;
45114;SDS011;30877;43.706;10.780;2023-12-28T10:00:16;16.40;;;11.75;;
45114;SDS011;30877;43.706;10.780;2023-12-28T10:02:46;15.85;;;11.48;;
45114;SDS011;30877;43.706;10.780;2023-12-28T10:05:15;15.90;;;12.77;;
45114;SDS011;30877;43.706;10.780;2023-12-28T10:07:47;13.98;;;12.52;;
45114;SDS011;30877;43.706;10.780;2023-12-28T10:10:17;19.33;;;13.32;;
45114;SDS011;30877;43.706;10.780;2023-12-28T10:12:48;14.60;;;12.48;;
45114;SDS011;30877;43.706;10.780;2023-12-28T10:15:17;17.83;;;13.68;;
45114;SDS011;30877;43.706;10.780;2023-12-28T10:17:47;16.70;;;12.68;;
45114;SDS011;30877;43.706;10.780;2023-12-28T10:20:16;17.65;;;11.95;;
45114;SDS011;30877;43.706;10.780;2023-12-28T10:22:46;14.38;;;11.80;;
45114;SDS011;30877;43.706;10.780;2023-12-28T10:25:16;14.63;;;12.05;;
45114;SDS011;30877;43.706;10.780;2023-12-28T10:27:44;15.40;;;11.77;;
45114;SDS011;30877;43.706;10.780;2023-12-28T10:30:13;28.77;;;24.50;;
45114;SDS011;30877;43.706;10.780;2023-12-28T10:32:41;25.63;;;20.25;;
45114;SDS011;30877;43.706;10.780;2023-12-28T10:35:11;14.30;;;12.43;;
45114;SDS011;30877;43.706;10.780;2023-12-28T10:37:40;15.80;;;12.98;;
45114;SDS011;30877;43.706;10.780;2023-12-28T10:40:12;15.60;;;13.30;;
45114;SDS011;30877;43.706;10.780;2023-12-28T10:42:46;16.60;;;13.70;;
45114;SDS011;30877;43.706;10.780;2023-12-28T10:45:19;16.58;;;12.02;;
45114;SDS011;30877;43.706;10.780;2023-12-28T10:47:53;13.63;;;10.95;;
45114;SDS011;30877;43.706;10.780;2023-12-28T10:50:33;17.27;;;11.48;;
45114;SDS011;30877;43.706;10.780;2023-12-28T10:53:12;12.70;;;10.75;;
45114;SDS011;30877;43.706;10.780;2023-12-28T10:55:51;16.17;;;12.05;;
45114;SDS011;30877;43.706;10.780;2023-12-28T10:58:28;19.92;;;14.88;;
45114;SDS011;30877;43.706;10.780;2023-12-28T11:01:02;12.57;;;10.15;;
45114;SDS011;30877;43.706;10.780;2023-12-28T11:03:37;13.23;;;10.02;;
45114;SDS011;30877;43.706;10.780;2023-12-28T11:06:09;12.20;;;10.05;;
45114;SDS011;30877;43.706;10.780;2023-12-28T11:08:40;13.98;;;10.40;;
45114;SDS011;30877;43.706;10.780;2023-12-28T11:11:19;16.00;;;10.40;;
45114;SDS011;30877;43.706;10.780;2023-12-28T11:13:50;11.63;;;10.10;;
45114;SDS011;30877;43.706;10.780;2023-12-28T11:16:20;12.82;;;9.23;;
45114;SDS011;30877;43.706;10.780;2023-12-28T11:18:49;10.88;;;9.45;;
45114;SDS011;30877;43.706;10.780;2023-12-28T11:21:21;11.68;;;9.63;;
45114;SDS011;30877;43.706;10.780;2023-12-28T11:23:50;11.90;;;9.68;;
45114;SDS011;30877;43.706;10.780;2023-12-28T11:26:19;11.20;;;9.98;;
45114;SDS011;30877;43.706;10.780;2023-12-28T11:28:59;12.68;;;10.45;;
45114;SDS011;30877;43.706;10.780;2023-12-28T11:31:31;14.40;;;9.85;;
45114;SDS011;30877;43.706;10.780;2023-12-28T11:34:56;11.70;;;9.55;;
45114;SDS011;30877;43.706;10.780;2023-12-28T11:39:58;12.68;;;9.55;;
45114;SDS011;30877;43.706;10.780;2023-12-28T11:42:36;12.88;;;9.98;;
45114;SDS011;30877;43.706;10.780;2023-12-28T11:45:16;12.25;;;9.73;;
45114;SDS011;30877;43.706;10.780;2023-12-28T11:47:46;11.05;;;9.00;;
45114;SDS011;30877;43.706;10.780;2023-12-28T11:50:14;11.13;;;9.00;;
45114;SDS011;30877;43.706;10.780;2023-12-28T11:52:46;13.30;;;8.80;;
45114;SDS011;30877;43.706;10.780;2023-12-28T11:55:20;38.35;;;26.95;;
45114;SDS011;30877;43.706;10.780;2023-12-28T11:58:46;15.65;;;12.43;;
45114;SDS011;30877;43.706;10.780;2023-12-28T12:01:25;12.90;;;9.60;;
45114;SDS011;30877;43.706;10.780;2023-12-28T12:03:54;13.00;;;9.20;;
45114;SDS011;30877;43.706;10.780;2023-12-28T12:06:22;11.68;;;9.50;;
45114;SDS011;30877;43.706;10.780;2023-12-28T12:08:54;12.02;;;7.97;;
45114;SDS011;30877;43.706;10.780;2023-12-28T12:11:23;9.70;;;7.80;;
45114;SDS011;30877;43.706;10.780;2023-12-28T12:13:53;9.45;;;8.00;;
45114;SDS011;30877;43.706;10.780;2023-12-28T12:16:22;10.50;;;8.13;;
45114;SDS011;30877;43.706;10.780;2023-12-28T12:18:51;9.57;;;7.75;;
45114;SDS011;30877;43.706;10.780;2023-12-28T12:21:20;12.00;;;8.60;;
45114;SDS011;30877;43.706;10.780;2023-12-28T12:23:49;13.52;;;10.23;;
45114;SDS011;30877;43.706;10.780;2023-12-28T12:26:19;9.68;;;7.10;;
45114;SDS011;30877;43.706;10.780;2023-12-28T12:28:48;12.13;;;8.48;;
45114;SDS011;30877;43.706;10.780;2023-12-28T12:31:17;11.45;;;8.20;;
45114;SDS011;30877;43.706;10.780;2023-12-28T12:33:46;16.45;;;13.02;;
45114;SDS011;30877;43.706;10.780;2023-12-28T12:36:18;12.85;;;9.00;;
45114;SDS011;30877;43.706;10.780;2023-12-28T12:38:49;16.08;;;13.50;;
45114;SDS011;30877;43.706;10.780;2023-12-28T12:41:41;14.50;;;11.70;;
45114;SDS011;30877;43.706;10.780;2023-12-28T12:44:11;25.50;;;19.27;;
45114;SDS011;30877;43.706;10.780;2023-12-28T12:46:39;13.07;;;8.30;;
45114;SDS011;30877;43.706;10.780;2023-12-28T12:49:09;12.55;;;7.65;;
45114;SDS011;30877;43.706;10.780;2023-12-28T12:51:38;10.27;;;7.82;;
45114;SDS011;30877;43.706;10.780;2023-12-28T12:54:08;12.65;;;8.77;;
45114;SDS011;30877;43.706;10.780;2023-12-28T12:56:37;11.20;;;9.50;;
45114;SDS011;30877;43.706;10.780;2023-12-28T12:59:16;16.52;;;13.32;;
45114;SDS011;30877;43.706;10.780;2023-12-28T13:01:45;14.65;;;9.43;;
45114;SDS011;30877;43.706;10.780;2023-12-28T13:04:17;10.57;;;8.00;;
45114;SDS011;30877;43.706;10.780;2023-12-28T13:06:46;9.25;;;7.72;;
45114;SDS011;30877;43.706;10.780;2023-12-28T13:09:15;16.83;;;12.63;;
45114;SDS011;30877;43.706;10.780;2023-12-28T13:11:45;15.60;;;12.90;;
45114;SDS011;30877;43.706;10.780;2023-12-28T13:14:19;15.93;;;11.02;;
45114;SDS011;30877;43.706;10.780;2023-12-28T13:16:47;15.13;;;10.27;;
45114;SDS011;30877;43.706;10.780;2023-12-28T13:21:53;10.75;;;8.48;;
45114;SDS011;30877;43.706;10.780;2023-12-28T13:24:22;11.82;;;8.60;;
45114;SDS011;30877;43.706;10.780;2023-12-28T13:26:52;11.15;;;8.30;;
45114;SDS011;30877;43.706;10.780;2023-12-28T13:29:22;10.15;;;7.97;;
45114;SDS011;30877;43.706;10.780;2023-12-28T13:31:51;16.75;;;8.75;;
45114;SDS011;30877;43.706;10.780;2023-12-28T13:34:20;12.65;;;7.85;;
45114;SDS011;30877;43.706;10.780;2023-12-28T13:36:52;12.48;;;8.30;;
45114;SDS011;30877;43.706;10.780;2023-12-28T13:39:21;10.07;;;7.30;;
45114;SDS011;30877;43.706;10.780;2023-12-28T13:41:52;11.68;;;8.52;;
45114;SDS011;30877;43.706;10.780;2023-12-28T13:44:23;12.48;;;8.70;;
45114;SDS011;30877;43.706;10.780;2023-12-28T13:46:51;10.68;;;9.10;;
45114;SDS011;30877;43.706;10.780;2023-12-28T13:49:21;11.52;;;8.57;;
45114;SDS011;30877;43.706;10.780;2023-12-28T13:51:50;11.75;;;8.30;;
45114;SDS011;30877;43.706;10.780;2023-12-28T13:54:19;15.52;;;9.30;;
45114;SDS011;30877;43.706;10.780;2023-12-28T13:56:48;12.73;;;8.88;;
45114;SDS011;30877;43.706;10.780;2023-12-28T13:59:17;11.65;;;9.52;;
45114;SDS011;30877;43.706;10.780;2023-12-28T14:01:47;11.75;;;9.45;;
45114;SDS011;30877;43.706;10.780;2023-12-28T14:04:16;18.80;;;11.95;;
45114;SDS011;30877;43.706;10.780;2023-12-28T14:06:46;18.10;;;11.85;;
45114;SDS011;30877;43.706;10.780;2023-12-28T14:09:16;11.77;;;9.85;;
45114;SDS011;30877;43.706;10.780;2023-12-28T14:11:47;13.10;;;9.85;;
45114;SDS011;30877;43.706;10.780;2023-12-28T14:14:17;15.90;;;10.38;;
45114;SDS011;30877;43.706;10.780;2023-12-28T14:16:49;15.32;;;11.27;;
45114;SDS011;30877;43.706;10.780;2023-12-28T14:19:17;38.78;;;27.73;;
45114;SDS011;30877;43.706;10.780;2023-12-28T14:21:46;20.60;;;14.65;;
45114;SDS011;30877;43.706;10.780;2023-12-28T14:24:16;13.50;;;10.73;;
45114;SDS011;30877;43.706;10.780;2023-12-28T14:26:46;16.20;;;10.98;;
45114;SDS011;30877;43.706;10.780;2023-12-28T14:29:15;15.73;;;10.93;;
45114;SDS011;30877;43.706;10.780;2023-12-28T14:31:44;13.98;;;10.98;;
45114;SDS011;30877;43.706;10.780;2023-12-28T14:34:15;16.23;;;11.73;;
45114;SDS011;30877;43.706;10.780;2023-12-28T14:36:44;14.20;;;11.02;;
45114;SDS011;30877;43.706;10.780;2023-12-28T14:39:17;18.08;;;12.13;;
45114;SDS011;30877;43.706;10.780;2023-12-28T14:41:46;15.80;;;12.68;;
45114;SDS011;30877;43.706;10.780;2023-12-28T14:44:14;15.85;;;12.68;;
45114;SDS011;30877;43.706;10.780;2023-12-28T14:46:44;16.63;;;12.40;;
45114;SDS011;30877;43.706;10.780;2023-12-28T14:49:15;18.10;;;11.90;;
45114;SDS011;30877;43.706;10.780;2023-12-28T14:51:44;16.30;;;10.77;;
45114;SDS011;30877;43.706;10.780;2023-12-28T14:54:15;16.63;;;12.48;;
45114;SDS011;30877;43.706;10.780;2023-12-28T14:56:43;15.77;;;12.02;;
45114;SDS011;30877;43.706;10.780;2023-12-28T14:59:21;18.65;;;13.65;;
45114;SDS011;30877;43.706;10.780;2023-12-28T15:01:50;19.45;;;13.38;;
45114;SDS011;30877;43.706;10.780;2023-12-28T15:04:21;17.88;;;12.40;;
45114;SDS011;30877;43.706;10.780;2023-12-28T15:06:53;20.25;;;14.65;;
45114;SDS011;30877;43.706;10.780;2023-12-28T15:09:22;18.55;;;12.18;;
45114;SDS011;30877;43.706;10.780;2023-12-28T15:11:51;17.15;;;12.40;;
45114;SDS011;30877;43.706;10.780;2023-12-28T15:14:20;17.27;;;13.20;;
45114;SDS011;30877;43.706;10.780;2023-12-28T15:16:51;16.00;;;13.52;;
45114;SDS011;30877;43.706;10.780;2023-12-28T15:19:23;18.30;;;13.63;;
45114;SDS011;30877;43.706;10.780;2023-12-28T15:21:54;24.52;;;18.33;;
45114;SDS011;30877;43.706;10.780;2023-12-28T15:24:23;19.45;;;14.18;;
45114;SDS011;30877;43.706;10.780;2023-12-28T15:26:54;19.33;;;15.25;;
45114;SDS011;30877;43.706;10.780;2023-12-28T15:29:23;22.45;;;17.50;;
45114;SDS011;30877;43.706;10.780;2023-12-28T15:31:51;26.55;;;18.45;;
45114;SDS011;30877;43.706;10.780;2023-12-28T15:34:19;20.70;;;15.93;;
45114;SDS011;30877;43.706;10.780;2023-12-28T15:36:50;21.08;;;14.63;;
45114;SDS011;30877;43.706;10.780;2023-12-28T15:39:20;19.52;;;14.55;;
45114;SDS011;30877;43.706;10.780;2023-12-28T15:41:49;18.73;;;14.85;;
45114;SDS011;30877;43.706;10.780;2023-12-28T15:44:17;20.70;;;14.93;;
45114;SDS011;30877;43.706;10.780;2023-12-28T15:46:45;19.38;;;15.05;;
45114;SDS011;30877;43.706;10.780;2023-12-28T15:49:13;21.52;;;15.52;;
45114;SDS011;30877;43.706;10.780;2023-12-28T15:51:46;19.25;;;15.38;;
45114;SDS011;30877;43.706;10.780;2023-12-28T15:54:15;21.20;;;15.32;;
45114;SDS011;30877;43.706;10.780;2023-12-28T15:56:44;18.67;;;15.00;;
45114;SDS011;30877;43.706;10.780;2023-12-28T15:59:12;19.85;;;15.43;;
45114;SDS011;30877;43.706;10.780;2023-12-28T16:01:40;20.30;;;16.08;;
45114;SDS011;30877;43.706;10.780;2023-12-28T16:04:10;25.98;;;16.67;;
45114;SDS011;30877;43.706;10.780;2023-12-28T16:06:39;21.58;;;15.52;;
45114;SDS011;30877;43.706;10.780;2023-12-28T16:09:09;22.33;;;17.67;;
45114;SDS011;30877;43.706;10.780;2023-12-28T16:11:38;21.48;;;15.75;;
45114;SDS011;30877;43.706;10.780;2023-12-28T16:14:06;22.08;;;16.85;;
45114;SDS011;30877;43.706;10.780;2023-12-28T16:16:35;21.65;;;15.77;;
45114;SDS011;30877;43.706;10.780;2023-12-28T16:19:04;21.65;;;16.05;;
45114;SDS011;30877;43.706;10.780;2023-12-28T16:21:33;24.25;;;18.00;;